Time;durP1;ratioP1;P1;durP2;ratioP2;P2;SDS_P1;SDS_P2;PMS_P1;PMS_P2;Temp;Humidity;BMP_temperature;BMP_pressure;BME280_temperature;BME280_humidity;BME280_pressure;Samples;Min_cycle;Max_cycle;Signal;HPM_P1;HPM_P2
2022/09/22 00:01:11;;;;;;;2.63;1.50;;;;;;;;;;5071845;28;20036;-64
2022/09/22 00:03:38;;;;;;;1.48;1.20;;;;;;;;;;5072036;28;20032;-64
2022/09/22 00:06:05;;;;;;;1.70;1.50;;;;;;;;;;5072384;28;20048;-64
2022/09/22 00:08:33;;;;;;;2.97;1.40;;;;;;;;;;5071010;28;20036;-64
2022/09/22 00:11:00;;;;;;;1.65;1.30;;;;;;;;;;5071802;28;20676;-64
2022/09/22 00:13:26;;;;;;;3.00;1.20;;;;;;;;;;5071797;28;20089;-64
2022/09/22 00:15:52;;;;;;;2.35;1.27;;;;;;;;;;5071267;28;20467;-64
2022/09/22 00:18:18;;;;;;;2.47;1.33;;;;;;;;;;5071910;28;20043;-64
2022/09/22 00:20:44;;;;;;;5.43;1.42;;;;;;;;;;5071951;28;20467;-64
2022/09/22 00:23:10;;;;;;;2.53;1.50;;;;;;;;;;5071506;28;20049;-64
2022/09/22 00:25:39;;;;;;;3.38;1.58;;;;;;;;;;5071833;28;20033;-64
2022/09/22 00:28:05;;;;;;;2.75;1.30;;;;;;;;;;5071677;28;20040;-64
2022/09/22 00:30:31;;;;;;;1.58;1.30;;;;;;;;;;5071318;28;20131;-64
2022/09/22 00:32:57;;;;;;;1.60;1.50;;;;;;;;;;5071639;28;20051;-64
2022/09/22 00:35:23;;;;;;;2.92;1.30;;;;;;;;;;5071331;28;20044;-64
2022/09/22 00:37:49;;;;;;;1.73;1.20;;;;;;;;;;5071044;28;20055;-64
2022/09/22 00:40:16;;;;;;;3.15;1.35;;;;;;;;;;5071477;28;20491;-64
2022/09/22 00:42:42;;;;;;;2.67;1.40;;;;;;;;;;5071479;28;20039;-64
2022/09/22 00:45:11;;;;;;;1.73;1.23;;;;;;;;;;5071097;28;20083;-64
2022/09/22 00:47:40;;;;;;;1.30;1.20;;;;;;;;;;5071245;28;20040;-64
2022/09/22 00:50:12;;;;;;;1.52;1.42;;;;;;;;;;5071111;28;20040;-64
2022/09/22 00:52:47;;;;;;;1.65;1.40;;;;;;;;;;5069519;28;20083;-64
2022/09/22 00:55:15;;;;;;;2.85;1.50;;;;;;;;;;5071229;28;20044;-64
2022/09/22 00:57:42;;;;;;;2.65;1.40;;;;;;;;;;5071004;28;20409;-64
2022/09/22 01:00:09;;;;;;;2.90;1.42;;;;;;;;;;5070877;28;20055;-64
2022/09/22 01:02:36;;;;;;;1.77;1.20;;;;;;;;;;5071164;28;20044;-64
2022/09/22 01:05:02;;;;;;;1.40;1.30;;;;;;;;;;5071185;28;20048;-64
2022/09/22 01:07:29;;;;;;;1.63;1.20;;;;;;;;;;5070490;28;20044;-64
2022/09/22 01:09:56;;;;;;;1.58;1.27;;;;;;;;;;5070662;28;20091;-64
2022/09/22 01:12:23;;;;;;;1.20;1.10;;;;;;;;;;5071006;28;20044;-64
2022/09/22 01:15:01;;;;;;;2.80;1.27;;;;;;;;;;5070562;28;20335;-64
2022/09/22 01:17:27;;;;;;;1.23;1.10;;;;;;;;;;5070731;28;20079;-64
2022/09/22 01:20:14;;;;;;;1.20;1.10;;;;;;;;;;5070901;28;20040;-64
2022/09/22 01:22:58;;;;;;;3.38;1.10;;;;;;;;;;5069804;28;20058;-64
2022/09/22 01:25:27;;;;;;;1.70;1.00;;;;;;;;;;5070974;28;20035;-64
2022/09/22 01:28:05;;;;;;;2.33;0.98;;;;;;;;;;5070615;28;20101;-64
2022/09/22 01:30:55;;;;;;;0.93;0.93;;;;;;;;;;5070518;28;20040;-64
2022/09/22 01:33:24;;;;;;;1.95;1.27;;;;;;;;;;5066659;28;20056;-64
2022/09/22 01:36:09;;;;;;;3.53;1.10;;;;;;;;;;5069171;28;20083;-64
2022/09/22 01:38:49;;;;;;;1.52;1.27;;;;;;;;;;5070742;28;20044;-64
2022/09/22 01:41:35;;;;;;;2.75;1.70;;;;;;;;;;5070715;28;20075;-64
2022/09/22 01:44:03;;;;;;;2.80;1.58;;;;;;;;;;5069890;28;20041;-64
2022/09/22 01:46:36;;;;;;;5.43;1.73;;;;;;;;;;5070546;28;20055;-64
2022/09/22 01:49:05;;;;;;;4.30;1.60;;;;;;;;;;5070601;28;20090;-64
2022/09/22 01:51:34;;;;;;;1.30;1.20;;;;;;;;;;5070218;28;20422;-64
2022/09/22 01:54:03;;;;;;;2.78;1.50;;;;;;;;;;5070422;28;20367;-64
2022/09/22 01:56:31;;;;;;;3.17;1.70;;;;;;;;;;5070190;28;20123;-64
2022/09/22 01:58:58;;;;;;;2.78;1.60;;;;;;;;;;5069739;28;20048;-64
2022/09/22 02:01:45;;;;;;;2.17;1.63;;;;;;;;;;5070574;28;20083;-64
2022/09/22 02:04:15;;;;;;;1.83;1.58;;;;;;;;;;5070036;28;20127;-64
2022/09/22 02:06:48;;;;;;;2.35;1.65;;;;;;;;;;5070012;28;20523;-64
2022/09/22 02:09:16;;;;;;;2.70;1.80;;;;;;;;;;5070089;28;20387;-64
2022/09/22 02:11:42;;;;;;;1.73;1.60;;;;;;;;;;5070268;28;20391;-64
2022/09/22 02:14:09;;;;;;;1.70;1.60;;;;;;;;;;5070110;28;20101;-64
2022/09/22 02:16:35;;;;;;;4.75;1.60;;;;;;;;;;5070254;28;20059;-64
2022/09/22 02:19:04;;;;;;;6.00;1.80;;;;;;;;;;5070218;28;20079;-64
2022/09/22 02:21:30;;;;;;;2.33;1.55;;;;;;;;;;5070005;28;20097;-64
2022/09/22 02:23:56;;;;;;;4.07;1.27;;;;;;;;;;5070459;28;20045;-64
2022/09/22 02:26:24;;;;;;;1.67;1.50;;;;;;;;;;5070345;28;20382;-64
2022/09/22 02:28:53;;;;;;;2.88;1.33;;;;;;;;;;5069414;28;20037;-64
2022/09/22 02:31:20;;;;;;;3.03;1.77;;;;;;;;;;5069066;28;20051;-64
2022/09/22 02:33:47;;;;;;;1.30;1.20;;;;;;;;;;5073353;28;20213;-64
2022/09/22 02:36:28;;;;;;;2.47;1.30;;;;;;;;;;5073318;28;20444;-64
2022/09/22 02:39:00;;;;;;;3.45;1.30;;;;;;;;;;5073705;28;20110;-64
2022/09/22 02:41:29;;;;;;;2.22;1.10;;;;;;;;;;5073796;28;20044;-63
2022/09/22 02:44:21;;;;;;;1.45;0.93;;;;;;;;;;5073496;28;20044;-63
2022/09/22 02:46:51;;;;;;;1.23;1.00;;;;;;;;;;5073133;28;20131;-63
2022/09/22 02:49:18;;;;;;;1.50;1.10;;;;;;;;;;5073588;28;20036;-63
2022/09/22 02:51:45;;;;;;;1.77;1.27;;;;;;;;;;5073383;28;20543;-63
2022/09/22 02:54:13;;;;;;;1.20;1.10;;;;;;;;;;5072333;28;20633;-63
2022/09/22 02:56:40;;;;;;;2.53;1.35;;;;;;;;;;5073506;28;20124;-63
2022/09/22 02:59:08;;;;;;;5.22;2.17;;;;;;;;;;5073066;28;20548;-63
2022/09/22 03:01:34;;;;;;;1.60;1.40;;;;;;;;;;5073287;28;20133;-63
2022/09/22 03:04:00;;;;;;;1.90;1.35;;;;;;;;;;5073071;28;20041;-63
2022/09/22 03:06:26;;;;;;;5.40;1.55;;;;;;;;;;5073025;28;20037;-63
2022/09/22 03:08:52;;;;;;;2.42;1.30;;;;;;;;;;5072959;28;20052;-63
2022/09/22 03:11:18;;;;;;;1.45;1.35;;;;;;;;;;5073054;28;20043;-63
2022/09/22 03:13:44;;;;;;;3.08;1.40;;;;;;;;;;5072795;28;20046;-63
2022/09/22 03:16:10;;;;;;;2.22;1.23;;;;;;;;;;5073139;28;20044;-63
2022/09/22 03:18:36;;;;;;;1.42;1.30;;;;;;;;;;5072855;28;20036;-63
2022/09/22 03:21:02;;;;;;;1.70;1.10;;;;;;;;;;5072740;28;20119;-63
2022/09/22 03:23:28;;;;;;;1.30;1.20;;;;;;;;;;5073133;28;20089;-63
2022/09/22 03:25:55;;;;;;;1.10;1.00;;;;;;;;;;5072715;28;20036;-63
2022/09/22 03:28:21;;;;;;;1.38;1.08;;;;;;;;;;5072034;28;20052;-63
2022/09/22 03:30:47;;;;;;;1.35;1.05;;;;;;;;;;5072948;28;20090;-63
2022/09/22 03:33:13;;;;;;;3.60;1.23;;;;;;;;;;5072879;28;20042;-63
2022/09/22 03:35:40;;;;;;;1.50;1.00;;;;;;;;;;5072496;28;20044;-63
2022/09/22 03:38:06;;;;;;;1.60;1.02;;;;;;;;;;5072602;28;20040;-63
2022/09/22 03:40:32;;;;;;;1.83;1.17;;;;;;;;;;5072761;28;20028;-63
2022/09/22 03:42:58;;;;;;;2.67;1.00;;;;;;;;;;5072392;28;20517;-63
2022/09/22 03:45:24;;;;;;;3.45;1.27;;;;;;;;;;5072025;28;20036;-63
2022/09/22 03:47:51;;;;;;;3.63;1.00;;;;;;;;;;5072515;28;20110;-63
2022/09/22 03:50:17;;;;;;;1.55;1.00;;;;;;;;;;5072177;28;20048;-63
2022/09/22 03:52:43;;;;;;;1.88;0.90;;;;;;;;;;5072472;28;20086;-63
2022/09/22 03:55:10;;;;;;;2.95;1.40;;;;;;;;;;5072186;28;20052;-63
2022/09/22 03:57:36;;;;;;;2.75;1.50;;;;;;;;;;5071875;28;20045;-63
2022/09/22 04:00:03;;;;;;;4.15;1.30;;;;;;;;;;5072418;28;20119;-63
2022/09/22 04:02:29;;;;;;;1.90;1.30;;;;;;;;;;5072322;28;20041;-63
2022/09/22 04:04:55;;;;;;;2.65;1.45;;;;;;;;;;5071803;28;20037;-63
2022/09/22 04:07:21;;;;;;;2.50;1.15;;;;;;;;;;5071882;28;20076;-63
2022/09/22 04:09:47;;;;;;;2.70;1.45;;;;;;;;;;5071910;28;20056;-63
2022/09/22 04:12:13;;;;;;;1.58;1.42;;;;;;;;;;5071651;28;20050;-63
2022/09/22 04:14:39;;;;;;;1.67;1.40;;;;;;;;;;5072045;28;20044;-63
2022/09/22 04:17:06;;;;;;;1.45;1.35;;;;;;;;;;5071840;28;20451;-63
2022/09/22 04:19:35;;;;;;;1.40;1.30;;;;;;;;;;5071616;28;20041;-63
2022/09/22 04:22:02;;;;;;;3.55;1.40;;;;;;;;;;5071948;28;20033;-63
2022/09/22 04:24:28;;;;;;;1.90;1.30;;;;;;;;;;5071554;28;20036;-63
2022/09/22 04:26:54;;;;;;;2.03;1.30;;;;;;;;;;5071365;28;20044;-63
2022/09/22 04:29:20;;;;;;;2.58;1.30;;;;;;;;;;5071569;28;20502;-63
2022/09/22 04:31:46;;;;;;;3.25;1.50;;;;;;;;;;5071483;28;20041;-63
2022/09/22 04:34:12;;;;;;;2.40;1.30;;;;;;;;;;5071074;28;20036;-63
2022/09/22 04:36:38;;;;;;;1.80;1.30;;;;;;;;;;5070975;28;20470;-63
2022/09/22 04:39:04;;;;;;;1.83;1.40;;;;;;;;;;5071450;28;20040;-63
2022/09/22 04:41:30;;;;;;;1.65;1.40;;;;;;;;;;5071079;28;20046;-63
2022/09/22 04:43:56;;;;;;;3.40;1.50;;;;;;;;;;5071441;28;20513;-63
2022/09/22 04:46:23;;;;;;;1.30;1.20;;;;;;;;;;5071490;28;20032;-63
2022/09/22 04:48:49;;;;;;;2.17;1.30;;;;;;;;;;5070807;28;20032;-63
2022/09/22 04:51:15;;;;;;;1.45;1.33;;;;;;;;;;5071377;28;20562;-63
2022/09/22 04:53:41;;;;;;;1.98;1.60;;;;;;;;;;5071355;28;20041;-63
2022/09/22 04:56:07;;;;;;;3.63;1.73;;;;;;;;;;5070807;28;20033;-63
2022/09/22 04:58:33;;;;;;;2.95;1.80;;;;;;;;;;5071029;28;20512;-63
2022/09/22 05:01:06;;;;;;;2.95;1.90;;;;;;;;;;5071243;28;20040;-64
2022/09/22 05:03:32;;;;;;;2.67;1.90;;;;;;;;;;5070442;28;20028;-63
2022/09/22 05:05:58;;;;;;;3.55;1.75;;;;;;;;;;5070945;28;20121;-63
2022/09/22 05:08:24;;;;;;;2.10;1.50;;;;;;;;;;5068970;28;20642;-63
2022/09/22 05:10:50;;;;;;;4.38;1.85;;;;;;;;;;5068169;28;20441;-63
2022/09/22 05:13:16;;;;;;;3.85;1.90;;;;;;;;;;5068992;28;20521;-63
2022/09/22 05:15:42;;;;;;;2.70;1.90;;;;;;;;;;5070279;28;20040;-63
2022/09/22 05:18:08;;;;;;;4.60;2.28;;;;;;;;;;5070279;28;20076;-63
2022/09/22 05:20:34;;;;;;;6.75;2.20;;;;;;;;;;5070247;28;20076;-63
2022/09/22 05:23:00;;;;;;;2.42;2.22;;;;;;;;;;5070384;28;20047;-63
2022/09/22 05:25:26;;;;;;;2.40;2.20;;;;;;;;;;5054254;28;20116;-63
2022/09/22 05:27:53;;;;;;;3.42;2.25;;;;;;;;;;5069329;28;20044;-63
2022/09/22 05:30:21;;;;;;;3.17;2.22;;;;;;;;;;5069586;28;20044;-63
2022/09/22 05:32:47;;;;;;;2.58;2.25;;;;;;;;;;5069987;28;20048;-63
2022/09/22 05:35:14;;;;;;;3.95;2.28;;;;;;;;;;5070162;28;20040;-63
2022/09/22 05:37:42;;;;;;;5.40;2.90;;;;;;;;;;5070026;28;20558;-63
2022/09/22 05:40:09;;;;;;;4.40;2.78;;;;;;;;;;5070597;28;20044;-63
2022/09/22 05:42:39;;;;;;;5.35;2.80;;;;;;;;;;5069456;28;20040;-63
2022/09/22 05:45:05;;;;;;;3.10;2.63;;;;;;;;;;5070663;28;20051;-64
2022/09/22 05:47:33;;;;;;;7.07;2.75;;;;;;;;;;5069963;28;20637;-63
2022/09/22 05:49:59;;;;;;;4.18;2.60;;;;;;;;;;5069773;28;20048;-64
2022/09/22 05:52:25;;;;;;;3.85;2.75;;;;;;;;;;5070406;28;20193;-63
2022/09/22 05:54:51;;;;;;;3.20;2.90;;;;;;;;;;5069990;28;20374;-63
2022/09/22 05:57:20;;;;;;;5.30;3.03;;;;;;;;;;5069802;28;20045;-63
2022/09/22 05:59:46;;;;;;;3.53;2.78;;;;;;;;;;5068565;28;20041;-63
2022/09/22 06:02:12;;;;;;;3.83;2.92;;;;;;;;;;5070512;28;20044;-63
2022/09/22 06:04:38;;;;;;;4.30;3.08;;;;;;;;;;5069559;28;20044;-63
2022/09/22 06:07:05;;;;;;;3.58;3.08;;;;;;;;;;5070768;28;20056;-63
2022/09/22 06:09:31;;;;;;;3.75;3.05;;;;;;;;;;5073470;28;20067;-63
2022/09/22 06:11:57;;;;;;;6.70;3.90;;;;;;;;;;5073238;28;20040;-63
2022/09/22 06:14:23;;;;;;;6.40;4.47;;;;;;;;;;5074245;28;20041;-63
2022/09/22 06:16:49;;;;;;;8.93;4.70;;;;;;;;;;5073646;28;20048;-63
2022/09/22 06:19:15;;;;;;;5.20;4.70;;;;;;;;;;5073524;28;20127;-63
2022/09/22 06:21:41;;;;;;;6.97;5.72;;;;;;;;;;5073678;28;20045;-63
2022/09/22 06:24:07;;;;;;;9.75;5.50;;;;;;;;;;5073840;28;20037;-63
2022/09/22 06:26:33;;;;;;;8.35;5.63;;;;;;;;;;5073008;28;20642;-63
2022/09/22 06:28:59;;;;;;;6.00;5.35;;;;;;;;;;5073471;28;20056;-65
2022/09/22 06:31:25;;;;;;;9.35;6.32;;;;;;;;;;5072610;28;20044;-63
2022/09/22 06:33:53;;;;;;;16.70;7.85;;;;;;;;;;5067818;28;20459;-63
2022/09/22 06:36:26;;;;;;;9.45;7.30;;;;;;;;;;5072430;28;20455;-63
2022/09/22 06:38:55;;;;;;;14.02;8.13;;;;;;;;;;5064730;28;20044;-63
2022/09/22 06:41:21;;;;;;;12.55;9.00;;;;;;;;;;5072866;28;20081;-63
2022/09/22 06:43:49;;;;;;;11.50;8.77;;;;;;;;;;5065107;28;20078;-63
2022/09/22 06:46:17;;;;;;;11.38;9.30;;;;;;;;;;5073197;28;20427;-62
2022/09/22 06:48:44;;;;;;;11.50;9.70;;;;;;;;;;5071847;28;20051;-63
2022/09/22 06:51:10;;;;;;;11.98;9.30;;;;;;;;;;5073016;28;20072;-63
2022/09/22 06:53:36;;;;;;;13.13;10.18;;;;;;;;;;5068513;28;21565;-63
2022/09/22 06:56:04;;;;;;;13.68;10.73;;;;;;;;;;5066800;28;20055;-63
2022/09/22 06:58:31;;;;;;;11.57;10.38;;;;;;;;;;5072145;28;20048;-62
2022/09/22 07:01:05;;;;;;;15.50;11.43;;;;;;;;;;5072419;28;20040;-62
2022/09/22 07:03:32;;;;;;;16.70;11.98;;;;;;;;;;5072223;28;20032;-62
2022/09/22 07:06:01;;;;;;;14.95;12.32;;;;;;;;;;5071739;28;20056;-62
2022/09/22 07:08:32;;;;;;;18.00;13.23;;;;;;;;;;5071933;28;20062;-63
2022/09/22 07:11:01;;;;;;;15.95;13.82;;;;;;;;;;5071318;28;20043;-63
2022/09/22 07:13:28;;;;;;;18.67;14.27;;;;;;;;;;5072291;28;20071;-63
2022/09/22 07:15:59;;;;;;;18.35;13.38;;;;;;;;;;5071077;28;20048;-64
2022/09/22 07:18:25;;;;;;;15.02;13.35;;;;;;;;;;5061685;28;20094;-63
2022/09/22 07:20:51;;;;;;;20.38;13.70;;;;;;;;;;5069853;28;20071;-62
2022/09/22 07:23:20;;;;;;;18.35;13.20;;;;;;;;;;5071250;28;20047;-63
2022/09/22 07:25:58;;;;;;;16.63;13.73;;;;;;;;;;5070650;28;20447;-63
2022/09/22 07:28:27;;;;;;;20.23;14.68;;;;;;;;;;5064342;28;20044;-64
2022/09/22 07:30:53;;;;;;;23.23;15.95;;;;;;;;;;5071719;28;20091;-64
2022/09/22 07:33:19;;;;;;;21.63;15.25;;;;;;;;;;5069802;28;20444;-63
2022/09/22 07:35:45;;;;;;;19.08;14.15;;;;;;;;;;5071398;28;20137;-63
2022/09/22 07:38:11;;;;;;;18.90;15.52;;;;;;;;;;5071506;28;20096;-64
2022/09/22 07:40:37;;;;;;;23.02;16.15;;;;;;;;;;5070655;28;20036;-63
2022/09/22 07:43:03;;;;;;;22.88;17.83;;;;;;;;;;5071503;28;20040;-63
2022/09/22 07:45:29;;;;;;;23.27;17.90;;;;;;;;;;5070157;28;20049;-63
2022/09/22 07:50:40;;;;;;;24.80;17.88;;;;;;;;;;5069671;28;20091;-64
2022/09/22 07:53:06;;;;;;;26.48;18.30;;;;;;;;;;5071150;28;20078;-64
2022/09/22 07:55:35;;;;;;;22.80;19.23;;;;;;;;;;5070540;28;20125;-63
2022/09/22 07:58:02;;;;;;;22.70;17.60;;;;;;;;;;5070797;28;20170;-65
2022/09/22 08:00:32;;;;;;;24.08;17.83;;;;;;;;;;5070354;28;20501;-64
2022/09/22 08:02:59;;;;;;;20.75;16.23;;;;;;;;;;5071499;28;20036;-63
2022/09/22 08:05:26;;;;;;;20.90;17.42;;;;;;;;;;5069604;28;20044;-63
2022/09/22 08:07:54;;;;;;;29.17;16.75;;;;;;;;;;5070906;28;20047;-64
2022/09/22 08:10:20;;;;;;;22.15;17.13;;;;;;;;;;5070205;28;20063;-64
2022/09/22 08:12:46;;;;;;;20.42;15.68;;;;;;;;;;5069020;28;20122;-64
2022/09/22 08:15:12;;;;;;;17.65;15.15;;;;;;;;;;5071020;28;20043;-65
2022/09/22 08:17:39;;;;;;;19.02;14.25;;;;;;;;;;5069785;28;20052;-64
2022/09/22 08:20:06;;;;;;;17.38;13.55;;;;;;;;;;5070452;28;20051;-65
2022/09/22 08:22:32;;;;;;;14.05;12.40;;;;;;;;;;5070576;28;20040;-65
2022/09/22 08:24:58;;;;;;;16.45;13.30;;;;;;;;;;5069807;28;20044;-64
2022/09/22 08:27:25;;;;;;;16.90;14.55;;;;;;;;;;5067958;28;20124;-64
2022/09/22 08:29:51;;;;;;;16.58;12.73;;;;;;;;;;5050719;28;20095;-64
2022/09/22 08:32:17;;;;;;;18.52;12.75;;;;;;;;;;5069912;28;20036;-64
2022/09/22 08:34:44;;;;;;;14.95;12.25;;;;;;;;;;5069962;28;20821;-65
2022/09/22 08:37:12;;;;;;;16.83;12.15;;;;;;;;;;5069682;28;20379;-65
2022/09/22 08:39:39;;;;;;;16.50;12.57;;;;;;;;;;5069574;28;20044;-64
2022/09/22 08:42:21;;;;;;;12.07;10.35;;;;;;;;;;5070842;28;20106;-64
2022/09/22 08:44:53;;;;;;;21.40;9.75;;;;;;;;;;5068402;28;20680;-65
2022/09/22 08:53:08;;;;;;;12.10;8.80;;;;;;;;;;5067373;28;20044;-63
2022/09/22 08:55:37;;;;;;;13.77;8.52;;;;;;;;;;5070253;28;20043;-62
2022/09/22 08:58:07;;;;;;;14.32;8.57;;;;;;;;;;5068102;28;20135;-62
2022/09/22 09:00:39;;;;;;;10.18;7.43;;;;;;;;;;5068696;28;20040;-63
2022/09/22 09:03:15;;;;;;;10.30;7.47;;;;;;;;;;5068463;28;20127;-63
2022/09/22 09:05:49;;;;;;;9.00;7.15;;;;;;;;;;5069268;28;20072;-63
2022/09/22 09:08:15;;;;;;;12.70;7.13;;;;;;;;;;5069060;28;20128;-64
2022/09/22 09:10:47;;;;;;;11.65;6.97;;;;;;;;;;5069126;28;20087;-63
2022/09/22 09:13:13;;;;;;;12.20;7.30;;;;;;;;;;5069958;28;20044;-63
2022/09/22 09:15:58;;;;;;;11.00;6.85;;;;;;;;;;5068656;28;20071;-63
2022/09/22 09:18:32;;;;;;;10.23;5.93;;;;;;;;;;5069611;28;20041;-65
2022/09/22 09:21:00;;;;;;;8.57;5.45;;;;;;;;;;5067985;28;20042;-64
2022/09/22 09:23:42;;;;;;;10.25;6.32;;;;;;;;;;5069330;28;20102;-64
2022/09/22 09:26:08;;;;;;;9.68;6.18;;;;;;;;;;5069583;28;20086;-63
2022/09/22 09:28:41;;;;;;;9.40;6.47;;;;;;;;;;5068553;28;20044;-65
2022/09/22 09:31:26;;;;;;;12.60;6.03;;;;;;;;;;5069374;28;20101;-64
2022/09/22 09:33:55;;;;;;;8.90;5.13;;;;;;;;;;5068576;28;20514;-65
2022/09/22 09:36:23;;;;;;;6.47;4.72;;;;;;;;;;5069681;28;20090;-65
2022/09/22 09:38:51;;;;;;;10.48;5.45;;;;;;;;;;5068527;28;20051;-65
2022/09/22 09:41:22;;;;;;;9.60;4.30;;;;;;;;;;5068757;28;20028;-65
2022/09/22 09:43:50;;;;;;;9.65;3.92;;;;;;;;;;5069333;28;20033;-66
2022/09/22 09:46:23;;;;;;;8.63;3.75;;;;;;;;;;5068484;28;20048;-67
2022/09/22 09:48:52;;;;;;;7.47;3.65;;;;;;;;;;5068879;28;20044;-65
2022/09/22 09:51:18;;;;;;;6.32;3.78;;;;;;;;;;5068113;28;20047;-65
2022/09/22 09:53:46;;;;;;;5.95;3.70;;;;;;;;;;5069314;28;20344;-65
2022/09/22 09:56:26;;;;;;;5.53;3.33;;;;;;;;;;5069586;28;20036;-65
2022/09/22 10:01:49;;;;;;;6.63;3.80;;;;;;;;;;5069134;28;20048;-65
2022/09/22 10:04:24;;;;;;;5.43;3.53;;;;;;;;;;5068767;28;20048;-64
2022/09/22 10:06:51;;;;;;;8.35;3.65;;;;;;;;;;5068801;28;20036;-65
2022/09/22 10:09:24;;;;;;;6.65;3.40;;;;;;;;;;5068383;28;20056;-65
2022/09/22 10:11:59;;;;;;;10.85;3.45;;;;;;;;;;5069221;28;20044;-65
2022/09/22 10:14:29;;;;;;;7.65;3.80;;;;;;;;;;5055228;28;20048;-64
2022/09/22 10:16:54;;;;;;;6.60;2.92;;;;;;;;;;5069297;28;20044;-64
2022/09/22 10:19:23;;;;;;;15.05;6.75;;;;;;;;;;5067680;28;20719;-64
2022/09/22 10:21:49;;;;;;;8.90;3.80;;;;;;;;;;5066961;28;20135;-63
2022/09/22 10:37:56;;;;;;;6.00;2.75;;;;;;;;;;5106884;28;20048;-63
2022/09/22 10:40:23;;;;;;;4.50;2.80;;;;;;;;;;5109554;28;20035;-64
2022/09/22 10:42:50;;;;;;;9.30;5.05;;;;;;;;;;5091699;28;20077;-64
2022/09/22 10:45:18;;;;;;;6.90;4.80;;;;;;;;;;5109044;28;20050;-65
2022/09/22 10:47:44;;;;;;;9.07;4.82;;;;;;;;;;5109354;28;20051;-67
2022/09/22 10:50:29;;;;;;;6.40;4.25;;;;;;;;;;5110067;28;20422;-65
2022/09/22 10:53:01;;;;;;;10.50;4.90;;;;;;;;;;5109555;28;20073;-65
2022/09/22 10:55:39;;;;;;;7.43;3.80;;;;;;;;;;5113103;28;20035;-65
2022/09/22 10:58:08;;;;;;;12.85;5.15;;;;;;;;;;5112590;28;20067;-65
2022/09/22 11:00:35;;;;;;;7.13;4.70;;;;;;;;;;5113030;28;20630;-66
2022/09/22 11:03:13;;;;;;;7.93;4.95;;;;;;;;;;5113387;28;20036;-65
2022/09/22 11:14:21;;;;;;;6.93;5.10;;;;;;;;;;5112507;28;20093;-65
2022/09/22 11:17:05;;;;;;;10.75;5.18;;;;;;;;;;5113365;28;20051;-65
2022/09/22 11:19:32;;;;;;;8.00;4.75;;;;;;;;;;5112526;28;20032;-65
2022/09/22 11:21:58;;;;;;;8.00;5.00;;;;;;;;;;5112458;28;20054;-65
2022/09/22 11:24:24;;;;;;;11.27;5.40;;;;;;;;;;5111988;28;20032;-65
2022/09/22 11:26:56;;;;;;;9.90;5.28;;;;;;;;;;5110264;27;20244;-65
2022/09/22 11:29:25;;;;;;;10.20;5.13;;;;;;;;;;5116766;27;20120;-65
2022/09/22 11:31:54;;;;;;;14.73;6.07;;;;;;;;;;5112865;28;20039;-64
2022/09/22 11:34:26;;;;;;;11.88;5.40;;;;;;;;;;5112242;28;20084;-64
2022/09/22 11:37:24;;;;;;;7.25;5.03;;;;;;;;;;5111826;28;20113;-64
2022/09/22 11:39:55;;;;;;;6.07;5.18;;;;;;;;;;5112747;28;20043;-64
2022/09/22 11:42:27;;;;;;;12.35;5.32;;;;;;;;;;5112201;28;20047;-65
2022/09/22 11:44:53;;;;;;;7.43;5.80;;;;;;;;;;5112452;28;20657;-63
2022/09/22 11:47:22;;;;;;;11.48;5.15;;;;;;;;;;5112177;28;20045;-66
2022/09/22 11:49:57;;;;;;;7.40;4.53;;;;;;;;;;5112211;28;20035;-64
2022/09/22 11:52:42;;;;;;;7.80;4.55;;;;;;;;;;5112007;27;20036;-64
2022/09/22 11:55:22;;;;;;;7.13;4.53;;;;;;;;;;5124416;27;20039;-64
2022/09/22 11:57:50;;;;;;;8.73;4.90;;;;;;;;;;5111985;28;20051;-64
2022/09/22 12:00:17;;;;;;;9.20;5.28;;;;;;;;;;5112143;28;20050;-65
2022/09/22 12:03:02;;;;;;;6.50;4.40;;;;;;;;;;5112463;28;20059;-64
2022/09/22 12:05:38;;;;;;;8.88;4.85;;;;;;;;;;5111019;28;20035;-64
2022/09/22 12:08:13;;;;;;;10.55;4.60;;;;;;;;;;5111708;28;20071;-64
2022/09/22 12:10:41;;;;;;;10.68;4.97;;;;;;;;;;5112138;28;20058;-64
2022/09/22 12:13:12;;;;;;;7.97;4.45;;;;;;;;;;5111155;28;20105;-64
2022/09/22 12:15:38;;;;;;;13.07;5.28;;;;;;;;;;5112190;28;20086;-64
2022/09/22 12:18:14;;;;;;;10.55;4.50;;;;;;;;;;5111298;27;20474;-65
2022/09/22 12:20:40;;;;;;;6.03;3.63;;;;;;;;;;5111673;28;20127;-65
2022/09/22 12:23:16;;;;;;;8.07;3.70;;;;;;;;;;5111677;28;20055;-64
2022/09/22 12:25:43;;;;;;;11.13;4.13;;;;;;;;;;5114170;27;20040;-64
2022/09/22 12:28:24;;;;;;;5.63;3.80;;;;;;;;;;5111170;28;20027;-64
2022/09/22 12:31:04;;;;;;;7.40;4.10;;;;;;;;;;5111348;28;20114;-64
2022/09/22 12:33:32;;;;;;;10.30;3.50;;;;;;;;;;5111771;28;20420;-65
2022/09/22 12:35:58;;;;;;;6.63;3.40;;;;;;;;;;5110809;28;20071;-65
2022/09/22 12:38:25;;;;;;;5.85;4.03;;;;;;;;;;5111357;28;20044;-65
2022/09/22 12:40:53;;;;;;;6.90;3.60;;;;;;;;;;5111290;28;20035;-65
2022/09/22 12:43:23;;;;;;;7.22;3.80;;;;;;;;;;5110796;28;20074;-64
2022/09/22 12:45:49;;;;;;;6.07;2.90;;;;;;;;;;5111467;28;20472;-64
2022/09/22 12:48:17;;;;;;;6.28;3.35;;;;;;;;;;5111171;28;20590;-64
2022/09/22 12:50:44;;;;;;;5.82;3.05;;;;;;;;;;5111090;28;20047;-64
2022/09/22 12:53:22;;;;;;;6.15;3.30;;;;;;;;;;5110838;28;20047;-65
2022/09/22 12:55:48;;;;;;;6.50;3.15;;;;;;;;;;5111179;28;20035;-65
2022/09/22 12:58:21;;;;;;;4.50;3.30;;;;;;;;;;5110128;28;20386;-64
2022/09/22 13:00:51;;;;;;;10.57;3.95;;;;;;;;;;5111330;28;20420;-65
2022/09/22 13:03:28;;;;;;;6.75;2.20;;;;;;;;;;5110931;28;20160;-64
2022/09/22 13:05:58;;;;;;;6.95;2.70;;;;;;;;;;5090989;28;20126;-64
2022/09/22 13:08:27;;;;;;;5.47;2.88;;;;;;;;;;5111027;28;20371;-65
2022/09/22 13:10:55;;;;;;;5.05;3.00;;;;;;;;;;5108995;28;20070;-65
2022/09/22 13:13:41;;;;;;;8.23;3.17;;;;;;;;;;5091825;28;20048;-65
2022/09/22 13:16:13;;;;;;;3.55;2.25;;;;;;;;;;5105658;28;20051;-65
2022/09/22 13:18:39;;;;;;;7.47;2.83;;;;;;;;;;5109883;28;20046;-65
2022/09/22 13:21:11;;;;;;;5.97;2.33;;;;;;;;;;5110782;28;20446;-65
2022/09/22 13:23:37;;;;;;;4.15;2.20;;;;;;;;;;5106073;28;20173;-64
2022/09/22 13:26:05;;;;;;;5.25;2.15;;;;;;;;;;5090619;28;20031;-65
2022/09/22 13:28:31;;;;;;;4.93;2.30;;;;;;;;;;5097642;28;20047;-65
2022/09/22 13:31:17;;;;;;;5.30;2.28;;;;;;;;;;5111255;28;20558;-65
2022/09/22 13:33:43;;;;;;;7.57;2.42;;;;;;;;;;5111069;28;20058;-65
2022/09/22 13:36:14;;;;;;;6.63;2.65;;;;;;;;;;5105083;28;20160;-64
2022/09/22 13:38:41;;;;;;;3.65;2.08;;;;;;;;;;5110644;28;20039;-65
2022/09/22 13:41:13;;;;;;;9.68;3.17;;;;;;;;;;5111218;28;20032;-65
2022/09/22 13:43:41;;;;;;;7.55;3.08;;;;;;;;;;5110467;28;20050;-65
2022/09/22 13:46:16;;;;;;;5.00;2.90;;;;;;;;;;5110944;28;20444;-65
2022/09/22 13:48:42;;;;;;;5.47;3.17;;;;;;;;;;5110653;28;20680;-65
2022/09/22 13:51:09;;;;;;;5.25;2.72;;;;;;;;;;5092049;28;20043;-65
2022/09/22 13:53:36;;;;;;;5.10;2.38;;;;;;;;;;5110850;28;20051;-65
2022/09/22 13:56:02;;;;;;;10.30;2.20;;;;;;;;;;5110447;28;20046;-65
2022/09/22 13:58:34;;;;;;;5.03;1.90;;;;;;;;;;5110339;28;20069;-65
2022/09/22 14:01:00;;;;;;;8.07;1.95;;;;;;;;;;5110935;28;20055;-65
2022/09/22 14:03:28;;;;;;;3.40;2.15;;;;;;;;;;5107656;28;20039;-65
2022/09/22 14:05:54;;;;;;;6.47;1.75;;;;;;;;;;5089812;28;20036;-65
2022/09/22 14:08:28;;;;;;;3.17;2.05;;;;;;;;;;5072075;28;20052;-65
2022/09/22 14:10:54;;;;;;;5.85;1.98;;;;;;;;;;5110479;28;20052;-65
2022/09/22 14:13:39;;;;;;;5.85;2.38;;;;;;;;;;5110570;28;20110;-65
2022/09/22 14:16:14;;;;;;;6.95;2.78;;;;;;;;;;5110832;28;20207;-65
2022/09/22 14:18:43;;;;;;;7.20;2.13;;;;;;;;;;5110105;28;20066;-65
2022/09/22 14:21:10;;;;;;;7.22;2.42;;;;;;;;;;5092136;28;20114;-65
2022/09/22 14:23:41;;;;;;;8.05;1.95;;;;;;;;;;5110420;28;20113;-65
2022/09/22 14:26:32;;;;;;;7.95;2.47;;;;;;;;;;5110098;28;20032;-65
2022/09/22 14:29:01;;;;;;;7.50;2.13;;;;;;;;;;5112102;28;20044;-65
2022/09/22 14:31:31;;;;;;;3.33;2.25;;;;;;;;;;5114348;28;20397;-65
2022/09/22 14:33:59;;;;;;;4.45;1.60;;;;;;;;;;5113936;28;20055;-65
2022/09/22 14:36:25;;;;;;;5.55;1.80;;;;;;;;;;5114477;28;20043;-65
2022/09/22 14:39:00;;;;;;;4.45;1.77;;;;;;;;;;5113842;28;20051;-65
2022/09/22 14:41:32;;;;;;;6.93;2.30;;;;;;;;;;5113742;28;20075;-65
2022/09/22 14:43:58;;;;;;;3.03;2.03;;;;;;;;;;5095578;28;20115;-65
2022/09/22 14:46:54;;;;;;;12.20;2.13;;;;;;;;;;5094023;28;20036;-65
2022/09/22 14:49:40;;;;;;;4.45;1.38;;;;;;;;;;5071680;28;20048;-65
2022/09/22 14:52:13;;;;;;;4.88;1.67;;;;;;;;;;5093585;28;20508;-65
2022/09/22 14:54:40;;;;;;;5.63;1.70;;;;;;;;;;5093889;28;20557;-65
2022/09/22 14:57:07;;;;;;;2.40;1.30;;;;;;;;;;5075065;28;20470;-65
2022/09/22 15:02:32;;;;;;;5.13;1.45;;;;;;;;;;5093735;28;20047;-65
2022/09/22 15:05:02;;;;;;;6.80;1.60;;;;;;;;;;5109300;28;20046;-65
2022/09/22 15:07:33;;;;;;;3.65;1.70;;;;;;;;;;5095390;28;20560;-65
2022/09/22 15:10:01;;;;;;;3.53;1.50;;;;;;;;;;5113694;28;20093;-65
2022/09/22 15:12:35;;;;;;;4.40;1.48;;;;;;;;;;5113622;28;20073;-65
2022/09/22 15:15:01;;;;;;;7.40;1.55;;;;;;;;;;5113980;28;20058;-65
2022/09/22 15:20:18;;;;;;;5.10;1.88;;;;;;;;;;5113668;28;20040;-65
2022/09/22 15:22:45;;;;;;;3.78;1.63;;;;;;;;;;5095079;28;20044;-65
2022/09/22 15:25:15;;;;;;;4.70;1.52;;;;;;;;;;5113258;28;20043;-65
2022/09/22 15:27:41;;;;;;;5.47;1.48;;;;;;;;;;5113616;28;20394;-65
2022/09/22 15:30:12;;;;;;;5.18;1.58;;;;;;;;;;5113488;28;20566;-65